Time;durP1;ratioP1;P1;durP2;ratioP2;P2;SDS_P1;SDS_P2;PMS_P1;PMS_P2;Temp;Humidity;BMP_temperature;BMP_pressure;BME280_temperature;BME280_humidity;BME280_pressure;Samples;Min_cycle;Max_cycle;Signal;HPM_P1;HPM_P2
2021/08/31 00:00:28;;;;;;;8.63;6.82;;;14.50;99.90;;;;;;5077348;28;20554;-74
2021/08/31 00:02:53;;;;;;;7.25;6.22;;;14.60;99.90;;;;;;5082204;28;20036;-75
2021/08/31 00:05:19;;;;;;;7.82;6.57;;;14.50;99.90;;;;;;5086319;28;20502;-75
2021/08/31 00:07:44;;;;;;;8.00;6.70;;;14.40;99.90;;;;;;5072936;28;20024;-76
2021/08/31 00:10:11;;;;;;;8.23;6.93;;;14.40;99.90;;;;;;5089953;28;20024;-75
2021/08/31 00:12:37;;;;;;;8.18;6.25;;;14.30;99.90;;;;;;5093029;28;20026;-75
2021/08/31 00:15:04;;;;;;;7.82;6.22;;;14.40;99.90;;;;;;5079639;28;20429;-75
2021/08/31 00:17:29;;;;;;;7.55;6.25;;;14.50;99.90;;;;;;5091741;28;20108;-75
2021/08/31 00:19:55;;;;;;;8.15;6.25;;;14.50;99.90;;;;;;5092868;28;20452;-76
2021/08/31 00:22:21;;;;;;;7.55;5.80;;;14.50;99.90;;;;;;5081238;28;20020;-75
2021/08/31 00:24:47;;;;;;;9.63;7.00;;;14.40;99.90;;;;;;5083065;28;20367;-75
2021/08/31 00:27:12;;;;;;;7.75;6.50;;;14.50;99.90;;;;;;5105276;28;20058;-74
2021/08/31 00:29:38;;;;;;;10.50;7.47;;;14.50;99.90;;;;;;5078003;28;20061;-75
2021/08/31 00:32:04;;;;;;;9.68;6.95;;;14.50;99.90;;;;;;5092717;28;20074;-76
2021/08/31 00:34:30;;;;;;;7.85;6.60;;;14.50;99.90;;;;;;5086710;28;20021;-75
2021/08/31 00:36:55;;;;;;;8.50;6.57;;;14.50;99.90;;;;;;5072410;28;20409;-75
2021/08/31 00:39:21;;;;;;;11.32;7.35;;;14.40;99.90;;;;;;5075266;28;20069;-75
2021/08/31 00:41:47;;;;;;;8.07;6.60;;;14.40;99.90;;;;;;5081707;28;20056;-76
2021/08/31 00:44:24;;;;;;;8.02;6.82;;;14.50;99.90;;;;;;5091482;28;20028;-76
2021/08/31 00:46:54;;;;;;;7.93;6.32;;;14.40;99.90;;;;;;5084556;28;20032;-75
2021/08/31 00:49:20;;;;;;;9.02;6.55;;;14.50;99.90;;;;;;5092580;28;20020;-75
2021/08/31 00:51:48;;;;;;;8.07;6.78;;;14.50;99.90;;;;;;5079624;28;20077;-76
2021/08/31 00:54:14;;;;;;;8.85;6.57;;;14.50;99.90;;;;;;5085433;28;20526;-75
2021/08/31 00:56:41;;;;;;;9.77;7.35;;;14.50;99.90;;;;;;5084955;28;20031;-75
2021/08/31 00:59:07;;;;;;;7.15;5.85;;;14.40;99.90;;;;;;5078988;28;20020;-75
2021/08/31 01:01:33;;;;;;;7.88;6.80;;;14.50;99.90;;;;;;5079562;28;20505;-73
2021/08/31 01:03:58;;;;;;;10.02;6.53;;;14.50;99.90;;;;;;5072028;28;20032;-74
2021/08/31 01:06:25;;;;;;;8.88;7.10;;;14.40;99.90;;;;;;5071721;28;20028;-74
2021/08/31 01:08:50;;;;;;;8.85;6.85;;;14.50;99.90;;;;;;5071920;28;20107;-74
2021/08/31 01:11:16;;;;;;;9.98;7.00;;;14.50;99.90;;;;;;5094899;28;20106;-73
2021/08/31 01:13:42;;;;;;;9.27;6.85;;;14.30;99.90;;;;;;5095017;28;20104;-74
2021/08/31 01:16:08;;;;;;;10.13;6.90;;;14.30;99.90;;;;;;5090374;28;20100;-74
2021/08/31 01:18:34;;;;;;;8.18;7.03;;;14.40;99.90;;;;;;5071888;28;20471;-73
2021/08/31 01:21:00;;;;;;;9.50;7.53;;;14.40;99.90;;;;;;5073953;28;20023;-73
2021/08/31 01:23:29;;;;;;;8.43;6.80;;;14.30;99.90;;;;;;5084602;28;20031;-73
2021/08/31 01:25:57;;;;;;;9.73;7.15;;;14.20;99.90;;;;;;5071632;28;20024;-74
2021/08/31 01:28:25;;;;;;;9.88;7.30;;;14.30;99.90;;;;;;5071808;28;20024;-72
2021/08/31 01:30:52;;;;;;;11.43;7.75;;;14.40;99.90;;;;;;5071482;28;20028;-73
2021/08/31 01:33:21;;;;;;;10.88;7.22;;;14.30;99.90;;;;;;5071716;28;20020;-72
2021/08/31 01:35:46;;;;;;;9.77;7.88;;;14.30;99.90;;;;;;5090693;28;20111;-73
2021/08/31 01:38:12;;;;;;;10.57;7.32;;;14.30;99.90;;;;;;5093150;28;20056;-73
2021/08/31 01:40:38;;;;;;;10.18;8.13;;;14.30;99.90;;;;;;5070274;28;20036;-74
2021/08/31 01:43:03;;;;;;;8.75;7.25;;;14.20;99.90;;;;;;5079591;28;20130;-74
2021/08/31 01:45:47;;;;;;;10.85;7.03;;;14.30;99.90;;;;;;5090340;28;20048;-74
2021/08/31 01:48:13;;;;;;;11.32;7.43;;;14.30;99.90;;;;;;5071707;28;20020;-75
2021/08/31 01:50:38;;;;;;;10.20;7.47;;;14.30;99.90;;;;;;5072925;28;20029;-76
2021/08/31 01:53:04;;;;;;;8.30;7.25;;;14.20;99.90;;;;;;5081558;28;20047;-75
2021/08/31 01:55:31;;;;;;;8.50;7.28;;;14.30;99.90;;;;;;5086927;28;20017;-75
2021/08/31 01:57:56;;;;;;;8.82;7.20;;;14.30;99.90;;;;;;5081337;28;20028;-75
2021/08/31 02:00:22;;;;;;;8.95;7.43;;;14.30;99.90;;;;;;5093397;28;20024;-76
2021/08/31 02:02:47;;;;;;;10.38;7.80;;;14.20;99.90;;;;;;5091544;28;20031;-76
2021/08/31 02:05:13;;;;;;;8.32;7.22;;;14.40;99.90;;;;;;5077816;28;20386;-74
2021/08/31 02:07:38;;;;;;;9.40;7.07;;;14.30;99.90;;;;;;5081852;28;20039;-75
2021/08/31 02:10:05;;;;;;;9.20;7.85;;;14.30;99.90;;;;;;5074081;28;20034;-74
2021/08/31 02:12:31;;;;;;;8.80;7.07;;;14.40;99.90;;;;;;5091339;28;20028;-74
2021/08/31 02:14:56;;;;;;;10.73;7.70;;;14.50;99.90;;;;;;5097746;28;20046;-75
2021/08/31 02:17:22;;;;;;;12.57;7.53;;;14.50;99.90;;;;;;5091547;28;20081;-75
2021/08/31 02:19:47;;;;;;;9.15;7.10;;;14.40;99.90;;;;;;5087850;28;20067;-75
2021/08/31 02:22:13;;;;;;;8.07;6.72;;;14.40;99.90;;;;;;5080489;28;20047;-75
2021/08/31 02:24:38;;;;;;;9.38;6.93;;;14.40;99.90;;;;;;5077500;28;20450;-75
2021/08/31 02:27:04;;;;;;;9.77;6.82;;;14.50;99.90;;;;;;5091470;28;20020;-74
2021/08/31 02:29:30;;;;;;;8.93;7.80;;;14.50;99.90;;;;;;5077681;28;20111;-74
2021/08/31 02:31:55;;;;;;;8.10;6.45;;;14.40;99.90;;;;;;5091374;28;20038;-74
2021/08/31 02:34:21;;;;;;;9.65;7.18;;;14.50;99.90;;;;;;5093092;28;20093;-75
2021/08/31 02:36:46;;;;;;;9.60;6.97;;;14.60;99.90;;;;;;5085582;28;20028;-75
2021/08/31 02:39:12;;;;;;;7.70;6.63;;;14.50;99.90;;;;;;5077290;28;20029;-74
2021/08/31 02:41:37;;;;;;;8.05;6.75;;;14.50;99.90;;;;;;5095091;28;20020;-74
2021/08/31 02:44:03;;;;;;;7.75;6.95;;;14.40;99.90;;;;;;5092010;28;20024;-75
2021/08/31 02:46:28;;;;;;;8.13;7.05;;;14.40;99.90;;;;;;5083782;28;20031;-75
2021/08/31 02:48:54;;;;;;;9.23;6.65;;;14.30;99.90;;;;;;5100607;28;20478;-75
2021/08/31 02:51:19;;;;;;;10.02;7.35;;;14.30;99.90;;;;;;5084970;28;20086;-75
2021/08/31 02:53:45;;;;;;;10.60;7.93;;;14.30;99.90;;;;;;5098997;28;20040;-75
2021/08/31 02:56:10;;;;;;;9.52;7.30;;;14.40;99.90;;;;;;5094399;28;20024;-76
2021/08/31 02:58:36;;;;;;;7.95;6.63;;;14.20;99.90;;;;;;5079586;28;20033;-74
2021/08/31 03:01:28;;;;;;;7.95;6.85;;;14.30;99.90;;;;;;5085986;28;20025;-74
2021/08/31 03:03:49;;;;;;;7.88;7.07;;;14.30;99.90;;;;;;5097008;28;20059;-74
2021/08/31 03:06:15;;;;;;;9.73;7.50;;;14.20;99.90;;;;;;5081261;28;20059;-75
2021/08/31 03:08:40;;;;;;;10.27;7.78;;;14.00;99.90;;;;;;5092253;28;20478;-75
2021/08/31 03:11:06;;;;;;;10.55;8.35;;;14.10;99.90;;;;;;5094230;28;20039;-74
2021/08/31 03:13:31;;;;;;;11.75;8.00;;;14.10;99.90;;;;;;5092817;28;20046;-74
2021/08/31 03:15:57;;;;;;;9.93;7.85;;;14.00;99.90;;;;;;5093950;28;20024;-74
2021/08/31 03:18:22;;;;;;;9.20;7.32;;;14.00;99.90;;;;;;5085726;28;20085;-74
2021/08/31 03:20:48;;;;;;;9.65;7.80;;;14.10;99.90;;;;;;5104903;28;20027;-75
2021/08/31 03:23:13;;;;;;;11.43;7.50;;;14.20;99.90;;;;;;5093880;28;20035;-74
2021/08/31 03:25:39;;;;;;;12.52;7.60;;;14.20;99.90;;;;;;5093958;28;20028;-75
2021/08/31 03:28:04;;;;;;;10.52;8.00;;;14.30;99.90;;;;;;5093962;28;20497;-74
2021/08/31 03:30:30;;;;;;;8.57;7.55;;;14.30;99.90;;;;;;5097855;28;20363;-74
2021/08/31 03:32:55;;;;;;;9.63;7.60;;;14.20;99.90;;;;;;5082425;28;20031;-74
2021/08/31 03:35:21;;;;;;;9.32;7.65;;;14.20;99.90;;;;;;5098531;28;20056;-75
2021/08/31 03:37:47;;;;;;;10.10;7.78;;;14.20;99.90;;;;;;5089825;28;20027;-75
2021/08/31 03:40:13;;;;;;;9.63;7.15;;;14.20;99.90;;;;;;5102062;28;20028;-75
2021/08/31 03:42:38;;;;;;;10.30;8.05;;;14.00;99.90;;;;;;5088803;28;20036;-75
2021/08/31 03:45:05;;;;;;;10.30;7.95;;;14.00;99.90;;;;;;5080315;28;20037;-74
2021/08/31 03:47:30;;;;;;;10.63;7.43;;;13.90;99.90;;;;;;5087103;28;20398;-74
2021/08/31 03:49:56;;;;;;;9.75;7.32;;;13.90;99.90;;;;;;5083925;28;20024;-74
2021/08/31 03:52:21;;;;;;;9.75;8.20;;;14.10;99.90;;;;;;5093131;28;20489;-74
2021/08/31 03:54:47;;;;;;;8.25;7.15;;;14.10;99.90;;;;;;5099157;28;20486;-74
2021/08/31 03:57:12;;;;;;;10.70;8.38;;;14.00;99.90;;;;;;5097031;28;20024;-74
2021/08/31 03:59:38;;;;;;;10.10;8.02;;;14.00;99.90;;;;;;5073166;28;20059;-73
2021/08/31 04:02:03;;;;;;;11.15;8.07;;;13.90;99.90;;;;;;5089608;28;20028;-75
2021/08/31 04:04:29;;;;;;;9.88;7.50;;;14.00;99.90;;;;;;5082171;28;20055;-75
2021/08/31 04:06:57;;;;;;;10.05;8.00;;;14.00;99.90;;;;;;5086471;28;20028;-75
2021/08/31 04:09:23;;;;;;;12.48;8.80;;;13.90;99.90;;;;;;5086361;28;20024;-74
2021/08/31 04:11:48;;;;;;;9.32;8.32;;;13.90;99.90;;;;;;5104020;28;20103;-73
2021/08/31 04:14:14;;;;;;;9.93;8.30;;;13.80;99.90;;;;;;5093078;28;20534;-74
2021/08/31 04:16:39;;;;;;;11.07;8.10;;;13.80;99.90;;;;;;5088371;28;20031;-74
2021/08/31 04:19:05;;;;;;;10.60;8.55;;;13.80;99.90;;;;;;5072878;28;20100;-73
2021/08/31 04:21:30;;;;;;;10.25;8.70;;;13.80;99.90;;;;;;5079324;28;20032;-73
2021/08/31 04:23:56;;;;;;;11.95;9.25;;;13.70;99.90;;;;;;5099951;28;20063;-74
2021/08/31 04:26:21;;;;;;;14.68;8.93;;;13.80;99.90;;;;;;5096071;28;20107;-75
2021/08/31 04:28:47;;;;;;;12.95;8.90;;;13.80;99.90;;;;;;5101933;28;20028;-75
2021/08/31 04:31:13;;;;;;;10.35;8.82;;;13.70;99.90;;;;;;5088505;28;20089;-75
2021/08/31 04:33:38;;;;;;;10.77;8.75;;;13.80;99.90;;;;;;5083506;28;20028;-74
2021/08/31 04:36:04;;;;;;;13.25;9.45;;;13.80;99.90;;;;;;5078940;28;20501;-74
2021/08/31 04:38:29;;;;;;;11.95;8.65;;;13.80;99.90;;;;;;5082218;28;20025;-75
2021/08/31 04:40:55;;;;;;;13.05;8.88;;;13.80;99.90;;;;;;5086117;28;20416;-75
2021/08/31 04:43:22;;;;;;;10.35;8.93;;;13.90;99.90;;;;;;5082542;28;20030;-75
2021/08/31 04:45:47;;;;;;;13.20;8.57;;;13.90;99.90;;;;;;5078918;28;20264;-75
2021/08/31 04:48:13;;;;;;;11.18;8.80;;;13.90;99.90;;;;;;5082767;28;20035;-75
2021/08/31 04:50:38;;;;;;;10.30;8.65;;;13.90;99.90;;;;;;5086073;28;20107;-75
2021/08/31 04:53:04;;;;;;;10.07;9.05;;;13.90;99.90;;;;;;5082216;28;20032;-75
2021/08/31 04:55:29;;;;;;;11.48;8.90;;;14.00;99.90;;;;;;5078373;28;20094;-75
2021/08/31 04:57:55;;;;;;;11.65;8.82;;;14.10;99.90;;;;;;5082464;28;20091;-75
2021/08/31 05:00:20;;;;;;;12.77;9.60;;;14.00;99.90;;;;;;5085583;28;20021;-74
2021/08/31 05:02:47;;;;;;;10.63;8.35;;;14.10;99.90;;;;;;5080863;28;20036;-74
2021/08/31 05:05:13;;;;;;;12.43;9.45;;;14.10;99.90;;;;;;5075065;28;20016;-74
2021/08/31 05:07:39;;;;;;;12.18;8.77;;;14.10;99.90;;;;;;5082256;28;20016;-75
2021/08/31 05:10:06;;;;;;;11.40;8.38;;;14.00;99.90;;;;;;5078572;28;20474;-74
2021/08/31 05:12:32;;;;;;;9.68;8.13;;;14.10;99.90;;;;;;5091998;28;20089;-74
2021/08/31 05:14:57;;;;;;;10.90;7.93;;;14.10;99.90;;;;;;5097185;28;20023;-75
2021/08/31 05:17:23;;;;;;;9.85;7.90;;;14.10;99.90;;;;;;5093229;28;20394;-74
2021/08/31 05:19:49;;;;;;;10.07;8.20;;;14.00;99.90;;;;;;5075722;28;20029;-74
2021/08/31 05:22:15;;;;;;;11.50;8.27;;;14.00;99.90;;;;;;5074396;28;20028;-73
2021/08/31 05:24:40;;;;;;;10.15;8.30;;;14.00;99.90;;;;;;5089365;28;20028;-74
2021/08/31 05:27:06;;;;;;;10.02;7.85;;;13.90;99.90;;;;;;5094441;28;20020;-74
2021/08/31 05:29:32;;;;;;;12.02;8.82;;;13.90;99.90;;;;;;5094946;28;20156;-73
2021/08/31 05:31:58;;;;;;;9.73;8.13;;;13.90;99.90;;;;;;5071723;28;20033;-74
2021/08/31 05:34:23;;;;;;;13.30;9.15;;;13.90;99.90;;;;;;5071187;28;20044;-74
2021/08/31 05:36:49;;;;;;;10.60;9.07;;;13.90;99.90;;;;;;5071593;28;20025;-74
2021/08/31 05:39:14;;;;;;;10.80;8.38;;;13.90;99.90;;;;;;5085206;28;20024;-74
2021/08/31 05:41:40;;;;;;;10.73;8.60;;;13.90;99.90;;;;;;5071617;28;20056;-74
2021/08/31 05:44:06;;;;;;;11.88;9.15;;;13.90;99.90;;;;;;5073232;28;20114;-74
2021/08/31 05:46:33;;;;;;;13.25;10.18;;;13.90;99.90;;;;;;5091476;28;20039;-74
2021/08/31 05:48:58;;;;;;;13.23;9.48;;;13.80;99.90;;;;;;5074921;28;20419;-73
2021/08/31 05:51:24;;;;;;;11.88;9.60;;;13.90;99.90;;;;;;5071402;28;20064;-74
2021/08/31 05:53:49;;;;;;;13.98;9.32;;;14.00;99.90;;;;;;5085019;28;20056;-74
2021/08/31 05:56:15;;;;;;;11.55;9.35;;;14.00;99.90;;;;;;5080648;28;20031;-74
2021/08/31 05:58:40;;;;;;;11.93;9.75;;;14.20;99.90;;;;;;5090811;28;21326;-74
2021/08/31 06:01:06;;;;;;;12.45;10.45;;;14.20;99.90;;;;;;5095400;28;20420;-74
2021/08/31 06:03:31;;;;;;;11.65;9.45;;;14.20;99.90;;;;;;5097069;28;20036;-74
2021/08/31 06:05:57;;;;;;;11.43;9.30;;;14.10;99.90;;;;;;5098114;28;20398;-74
2021/08/31 06:08:22;;;;;;;11.35;9.35;;;14.20;99.90;;;;;;5088269;28;20371;-74
2021/08/31 06:10:48;;;;;;;11.85;9.43;;;14.30;99.90;;;;;;5086355;28;20070;-74
2021/08/31 06:13:14;;;;;;;10.63;8.20;;;14.10;99.90;;;;;;5075137;28;20103;-74
2021/08/31 06:15:39;;;;;;;12.77;9.00;;;14.10;99.90;;;;;;5084663;28;20028;-74
2021/08/31 06:18:05;;;;;;;12.13;9.02;;;14.10;99.90;;;;;;5078972;28;20028;-74
2021/08/31 06:20:30;;;;;;;11.00;8.80;;;14.10;99.90;;;;;;5074866;28;20028;-74
2021/08/31 06:22:56;;;;;;;10.63;9.30;;;14.20;99.90;;;;;;5090907;28;20421;-74
2021/08/31 06:25:21;;;;;;;12.73;9.38;;;14.20;99.90;;;;;;5084338;28;20031;-75
2021/08/31 06:27:47;;;;;;;11.38;8.30;;;14.30;99.90;;;;;;5094966;28;20386;-74
2021/08/31 06:30:13;;;;;;;10.85;8.23;;;14.30;99.90;;;;;;5094955;28;20028;-74
2021/08/31 06:32:38;;;;;;;11.65;8.70;;;14.30;99.90;;;;;;5094904;28;20032;-74
2021/08/31 06:35:04;;;;;;;11.95;8.60;;;14.40;99.90;;;;;;5109349;28;20031;-75
2021/08/31 06:37:30;;;;;;;9.95;8.20;;;14.40;99.90;;;;;;5085754;28;20025;-75
2021/08/31 06:39:55;;;;;;;12.27;8.35;;;14.30;99.90;;;;;;5100327;28;20030;-74
2021/08/31 06:42:21;;;;;;;9.45;8.50;;;14.40;99.90;;;;;;5103330;28;20027;-74
2021/08/31 06:44:46;;;;;;;10.93;8.57;;;14.40;99.90;;;;;;5073080;28;20033;-73
2021/08/31 06:47:12;;;;;;;12.10;8.52;;;14.30;99.90;;;;;;5096301;28;20113;-74
2021/08/31 06:49:37;;;;;;;11.15;8.63;;;14.20;99.90;;;;;;5098386;28;20072;-74
2021/08/31 06:52:04;;;;;;;10.82;8.25;;;14.10;99.90;;;;;;5084539;28;20056;-74
2021/08/31 06:54:31;;;;;;;11.20;8.82;;;14.00;99.90;;;;;;5087811;28;20027;-74
2021/08/31 06:56:57;;;;;;;11.52;8.43;;;14.00;99.90;;;;;;5094243;28;20019;-74
2021/08/31 06:59:23;;;;;;;11.25;7.80;;;14.00;99.90;;;;;;5095762;28;20127;-74
2021/08/31 07:01:48;;;;;;;12.13;8.32;;;14.00;99.90;;;;;;5092323;28;20036;-75
2021/08/31 07:04:14;;;;;;;14.63;9.05;;;14.00;99.90;;;;;;5094359;28;20047;-75
2021/08/31 07:06:39;;;;;;;9.75;8.63;;;14.20;99.90;;;;;;5105928;28;20032;-72
2021/08/31 07:09:05;;;;;;;11.75;8.65;;;14.20;99.90;;;;;;5086269;28;20024;-75
2021/08/31 07:11:31;;;;;;;9.52;7.85;;;14.30;99.90;;;;;;5087540;28;20028;-75
2021/08/31 07:13:57;;;;;;;10.23;7.95;;;14.40;99.90;;;;;;5082587;28;20020;-75
2021/08/31 07:16:23;;;;;;;9.52;7.80;;;14.50;99.90;;;;;;5092048;28;20039;-74
2021/08/31 07:18:48;;;;;;;10.63;7.88;;;14.60;99.90;;;;;;5073649;28;20539;-76
2021/08/31 07:21:14;;;;;;;8.95;7.25;;;14.90;99.90;;;;;;5087103;28;20111;-75
2021/08/31 07:23:39;;;;;;;12.07;7.78;;;15.10;99.90;;;;;;5080921;28;20119;-75
2021/08/31 07:26:05;;;;;;;10.25;8.30;;;15.10;99.90;;;;;;5078876;28;20093;-75
2021/08/31 07:28:31;;;;;;;8.85;7.07;;;14.90;99.90;;;;;;5073984;28;20036;-75
2021/08/31 07:30:56;;;;;;;11.27;7.40;;;14.90;99.90;;;;;;5087462;28;20028;-75
2021/08/31 07:33:22;;;;;;;9.20;7.45;;;15.00;99.90;;;;;;5081850;28;20115;-74
2021/08/31 07:35:47;;;;;;;10.15;7.20;;;15.10;99.90;;;;;;5092813;28;20471;-75
2021/08/31 07:38:13;;;;;;;8.65;7.05;;;15.20;99.90;;;;;;5085639;28;20439;-75
2021/08/31 07:40:39;;;;;;;10.35;7.30;;;15.50;99.90;;;;;;5082201;28;20182;-75
2021/08/31 07:43:05;;;;;;;10.32;6.93;;;15.50;99.90;;;;;;5085642;28;20506;-75
2021/08/31 07:45:31;;;;;;;9.15;7.65;;;15.20;99.90;;;;;;5086999;28;20024;-75
2021/08/31 07:47:57;;;;;;;9.07;7.35;;;15.00;99.90;;;;;;5086219;28;20036;-75
2021/08/31 07:50:23;;;;;;;8.23;7.00;;;15.20;99.90;;;;;;5087768;28;20043;-75
2021/08/31 07:52:48;;;;;;;11.05;6.93;;;15.40;99.90;;;;;;5081486;28;20024;-75
2021/08/31 07:55:14;;;;;;;9.15;7.43;;;15.40;99.90;;;;;;5078421;28;20020;-75
2021/08/31 07:57:40;;;;;;;9.77;6.97;;;15.60;99.90;;;;;;5085625;28;20052;-75
2021/08/31 08:00:08;;;;;;;8.50;6.88;;;15.40;99.90;;;;;;5085721;28;20023;-75
2021/08/31 08:02:34;;;;;;;8.23;6.60;;;15.40;99.90;;;;;;5081428;28;20111;-75
2021/08/31 08:05:05;;;;;;;11.18;7.78;;;15.50;99.90;;;;;;5079846;28;20563;-74
2021/08/31 08:07:31;;;;;;;8.93;6.63;;;15.60;99.90;;;;;;5084655;28;20036;-75
2021/08/31 08:09:57;;;;;;;9.48;7.25;;;15.50;99.90;;;;;;5088870;28;20020;-75
2021/08/31 08:12:24;;;;;;;9.10;6.40;;;15.60;99.90;;;;;;5084319;28;20020;-75
2021/08/31 08:14:49;;;;;;;9.48;6.55;;;15.90;99.90;;;;;;5071649;28;20103;-75
2021/08/31 08:17:20;;;;;;;8.40;6.15;;;16.20;99.90;;;;;;5081229;28;20304;-75
2021/08/31 08:19:46;;;;;;;8.02;5.88;;;16.20;99.90;;;;;;5079556;28;20020;-75
2021/08/31 08:22:13;;;;;;;9.02;6.32;;;15.80;99.90;;;;;;5088660;28;20386;-75
2021/08/31 08:24:39;;;;;;;9.13;6.60;;;16.00;99.90;;;;;;5092145;28;20036;-75
2021/08/31 08:27:05;;;;;;;7.70;6.82;;;16.00;99.90;;;;;;5082041;28;20077;-75
2021/08/31 08:29:31;;;;;;;9.27;6.50;;;16.50;99.90;;;;;;5079526;28;20020;-76
2021/08/31 08:31:56;;;;;;;8.65;6.05;;;16.50;99.90;;;;;;5081658;28;20055;-71
2021/08/31 08:34:23;;;;;;;11.77;6.47;;;16.70;99.90;;;;;;5089728;28;20100;-75
2021/08/31 08:36:49;;;;;;;8.50;5.93;;;16.70;99.90;;;;;;5092843;28;20024;-75
2021/08/31 08:39:14;;;;;;;8.32;5.50;;;16.90;99.90;;;;;;5079004;28;20024;-75
2021/08/31 08:41:41;;;;;;;8.38;5.63;;;16.80;99.90;;;;;;5082248;28;20025;-75
2021/08/31 08:44:06;;;;;;;6.93;5.22;;;16.90;99.90;;;;;;5085845;28;20497;-75
2021/08/31 08:46:32;;;;;;;6.40;5.60;;;16.50;99.90;;;;;;5072109;28;20024;-75
2021/08/31 08:48:58;;;;;;;6.72;5.40;;;16.30;99.90;;;;;;5084700;28;20541;-75
2021/08/31 08:51:24;;;;;;;8.25;6.05;;;16.30;99.90;;;;;;5082221;28;20540;-76
2021/08/31 08:53:49;;;;;;;7.63;5.63;;;16.30;99.90;;;;;;5074943;28;20021;-75
2021/08/31 08:56:15;;;;;;;8.02;6.15;;;16.20;99.90;;;;;;5082095;28;20020;-75
2021/08/31 08:58:41;;;;;;;6.43;5.68;;;15.90;99.90;;;;;;5088045;28;20028;-75
2021/08/31 09:01:11;;;;;;;8.05;5.60;;;16.00;99.90;;;;;;5081894;28;20035;-75
2021/08/31 09:03:39;;;;;;;7.55;6.22;;;16.00;99.90;;;;;;5085618;28;20397;-75
2021/08/31 09:06:12;;;;;;;10.18;6.32;;;15.80;99.90;;;;;;5092093;28;20028;-75
2021/08/31 09:08:43;;;;;;;8.82;6.38;;;15.80;99.90;;;;;;5087048;28;20025;-76
2021/08/31 09:11:22;;;;;;;7.55;5.70;;;16.00;99.90;;;;;;5083927;28;20024;-75
2021/08/31 09:13:50;;;;;;;8.82;6.18;;;15.90;99.90;;;;;;5077896;28;20432;-76
2021/08/31 09:16:22;;;;;;;9.73;5.78;;;15.80;99.90;;;;;;5089524;28;20356;-75
2021/08/31 09:18:52;;;;;;;9.55;6.00;;;15.80;99.90;;;;;;5080507;28;20020;-75
2021/08/31 09:21:27;;;;;;;10.68;6.57;;;15.90;99.90;;;;;;5077254;28;20028;-75
2021/08/31 09:23:55;;;;;;;9.57;6.15;;;15.80;99.90;;;;;;5081552;28;20364;-75
2021/08/31 09:26:39;;;;;;;7.78;6.38;;;15.90;99.90;;;;;;5074117;28;20024;-75
2021/08/31 09:29:18;;;;;;;10.43;6.05;;;15.90;99.90;;;;;;5077840;28;20056;-75
2021/08/31 09:31:53;;;;;;;9.13;6.30;;;15.80;99.90;;;;;;5078514;28;20107;-75
2021/08/31 09:34:45;;;;;;;10.30;6.63;;;16.00;99.90;;;;;;5078266;28;20445;-76
2021/08/31 09:37:36;;;;;;;8.98;6.18;;;15.90;99.90;;;;;;5078033;28;20025;-75
2021/08/31 09:40:10;;;;;;;8.32;6.00;;;15.90;99.90;;;;;;5081241;28;20482;-75
2021/08/31 09:43:13;;;;;;;7.40;5.85;;;15.90;99.90;;;;;;5082530;28;20040;-77
2021/08/31 09:45:41;;;;;;;7.35;5.80;;;15.90;99.90;;;;;;5080961;28;20512;-76
2021/08/31 09:48:09;;;;;;;7.95;6.35;;;15.90;99.90;;;;;;5091847;28;20028;-77
2021/08/31 09:50:45;;;;;;;8.13;6.30;;;16.00;99.90;;;;;;5090713;28;20020;-76
2021/08/31 09:53:14;;;;;;;7.65;6.53;;;16.20;99.90;;;;;;5094911;28;20035;-76
2021/08/31 09:55:46;;;;;;;8.13;6.50;;;16.50;99.90;;;;;;5087744;28;20017;-76
2021/08/31 09:58:15;;;;;;;10.13;6.75;;;16.40;99.90;;;;;;5086611;28;20433;-75
2021/08/31 10:00:44;;;;;;;8.48;6.53;;;16.20;99.90;;;;;;5082887;28;20040;-76
2021/08/31 10:03:10;;;;;;;8.27;7.00;;;16.10;99.90;;;;;;5082439;28;20016;-76
2021/08/31 10:05:38;;;;;;;8.80;6.57;;;16.20;99.90;;;;;;5084118;28;20589;-76
2021/08/31 10:08:04;;;;;;;8.25;6.57;;;16.20;99.90;;;;;;5093126;28;20020;-76
2021/08/31 10:10:31;;;;;;;9.27;6.78;;;16.30;99.90;;;;;;5092113;28;20039;-76
2021/08/31 10:13:00;;;;;;;8.18;6.40;;;16.50;99.90;;;;;;5087462;28;20024;-76
2021/08/31 10:15:27;;;;;;;10.70;6.82;;;16.70;99.90;;;;;;5084937;28;20020;-76
2021/08/31 10:17:53;;;;;;;7.25;6.28;;;16.60;99.90;;;;;;5086765;28;20017;-76
2021/08/31 10:20:24;;;;;;;7.90;6.53;;;16.70;99.90;;;;;;5090929;28;20027;-75
2021/08/31 10:22:50;;;;;;;7.57;6.50;;;16.80;99.90;;;;;;5090633;28;20017;-76
2021/08/31 10:25:21;;;;;;;7.80;6.22;;;16.90;99.90;;;;;;5093550;28;20504;-75
2021/08/31 10:27:47;;;;;;;9.60;7.13;;;16.80;99.90;;;;;;5105444;28;20026;-76
2021/08/31 10:30:29;;;;;;;9.75;6.93;;;17.00;99.90;;;;;;5077347;28;20390;-76
2021/08/31 10:33:00;;;;;;;7.85;6.45;;;17.10;99.90;;;;;;5086701;28;20028;-76
2021/08/31 10:35:35;;;;;;;9.20;6.85;;;17.20;99.90;;;;;;5090225;28;20479;-76
2021/08/31 10:38:03;;;;;;;9.23;6.43;;;17.20;99.90;;;;;;5083329;28;20070;-75
2021/08/31 10:40:41;;;;;;;7.70;6.30;;;17.20;99.90;;;;;;5091678;28;20016;-76
2021/08/31 10:43:10;;;;;;;10.77;6.63;;;17.20;99.90;;;;;;5094207;28;20478;-76
2021/08/31 10:45:38;;;;;;;8.18;6.53;;;17.50;99.90;;;;;;5089054;28;20027;-76
2021/08/31 10:48:23;;;;;;;8.65;6.45;;;17.60;99.90;;;;;;5093176;28;20024;-75
2021/08/31 10:50:49;;;;;;;7.33;6.63;;;17.90;99.90;;;;;;5089735;28;20062;-76
2021/08/31 10:53:41;;;;;;;8.55;6.63;;;17.80;99.90;;;;;;5079961;28;20445;-76
2021/08/31 10:56:25;;;;;;;8.95;6.43;;;17.60;99.90;;;;;;5086022;28;20024;-76
2021/08/31 10:58:59;;;;;;;8.07;5.95;;;17.70;99.90;;;;;;5089002;28;20078;-76
2021/08/31 11:01:41;;;;;;;6.43;5.75;;;18.00;99.90;;;;;;5083848;28;20028;-77
2021/08/31 11:04:27;;;;;;;7.60;6.20;;;17.90;99.90;;;;;;5090898;28;20035;-76
2021/08/31 11:07:00;;;;;;;7.32;5.90;;;18.10;99.90;;;;;;5087021;28;20109;-76
2021/08/31 11:09:26;;;;;;;12.52;6.18;;;17.90;99.90;;;;;;5091255;28;20112;-76
2021/08/31 11:12:18;;;;;;;7.05;6.32;;;17.90;99.90;;;;;;5090596;28;20032;-76
2021/08/31 11:14:51;;;;;;;7.32;5.72;;;17.90;99.90;;;;;;5078751;28;20080;-76
2021/08/31 11:17:29;;;;;;;7.13;5.30;;;17.90;99.90;;;;;;5085413;28;20478;-76
2021/08/31 11:20:18;;;;;;;7.07;5.05;;;17.80;99.90;;;;;;5081096;28;20158;-75
2021/08/31 11:22:45;;;;;;;7.97;5.35;;;18.00;99.90;;;;;;5077874;28;20062;-76
2021/08/31 11:25:12;;;;;;;6.38;5.78;;;18.00;99.90;;;;;;5082089;28;20028;-75
2021/08/31 11:28:00;;;;;;;8.07;5.53;;;18.00;99.90;;;;;;5092793;28;20039;-76
2021/08/31 11:30:26;;;;;;;9.40;5.88;;;17.90;99.90;;;;;;5085168;28;20051;-76
2021/08/31 11:33:15;;;;;;;6.60;5.65;;;17.80;99.90;;;;;;5080269;28;20550;-75
2021/08/31 11:35:42;;;;;;;6.80;5.78;;;18.00;99.90;;;;;;5089588;28;20052;-75
2021/08/31 11:38:08;;;;;;;7.22;5.47;;;18.20;99.90;;;;;;5080378;28;20020;-76
2021/08/31 11:40:34;;;;;;;7.65;5.68;;;18.40;99.90;;;;;;5079005;28;20574;-76
2021/08/31 11:43:00;;;;;;;7.22;5.10;;;18.30;99.90;;;;;;5086014;28;20056;-76
2021/08/31 11:45:37;;;;;;;6.45;5.10;;;18.30;99.90;;;;;;5088144;28;20047;-75
2021/08/31 11:48:04;;;;;;;7.18;5.45;;;18.80;99.90;;;;;;5084518;28;20028;-76
2021/08/31 11:50:30;;;;;;;8.25;5.95;;;19.00;99.90;;;;;;5085816;28;20508;-76
2021/08/31 11:52:55;;;;;;;5.75;5.22;;;18.80;99.90;;;;;;5082637;28;20036;-76
2021/08/31 11:55:26;;;;;;;6.53;5.82;;;18.40;99.90;;;;;;5078727;28;20028;-76
2021/08/31 11:58:03;;;;;;;8.15;5.28;;;19.10;99.90;;;;;;5083906;28;20052;-76
2021/08/31 12:00:43;;;;;;;10.32;6.10;;;19.40;99.90;;;;;;5085647;28;20111;-75
2021/08/31 12:03:29;;;;;;;6.85;5.05;;;19.70;99.90;;;;;;5086211;28;20470;-76
2021/08/31 12:06:07;;;;;;;14.10;6.28;;;19.40;99.90;;;;;;5092782;28;20028;-76
2021/08/31 12:08:42;;;;;;;9.30;5.57;;;18.90;99.90;;;;;;5079965;28;20032;-76
2021/08/31 12:11:09;;;;;;;6.22;5.22;;;18.50;99.90;;;;;;5079827;28;20028;-76
2021/08/31 12:13:35;;;;;;;6.72;5.28;;;18.90;99.90;;;;;;5085817;28;20081;-76
2021/08/31 12:16:02;;;;;;;6.75;5.70;;;19.30;99.90;;;;;;5072965;28;20029;-75
2021/08/31 12:18:30;;;;;;;7.05;5.85;;;19.60;99.90;;;;;;5079465;28;20016;-76
2021/08/31 12:21:19;;;;;;;9.77;5.32;;;20.20;99.90;;;;;;5079017;28;20025;-76
2021/08/31 12:23:46;;;;;;;7.88;5.68;;;20.20;99.90;;;;;;5080377;28;20580;-75
2021/08/31 12:26:27;;;;;;;6.35;5.68;;;20.20;99.90;;;;;;5092675;28;20100;-76
2021/08/31 12:29:04;;;;;;;5.85;5.07;;;20.40;99.90;;;;;;5082154;28;20016;-75
2021/08/31 12:31:30;;;;;;;6.80;5.30;;;20.70;99.90;;;;;;5079536;28;20046;-76
2021/08/31 12:33:56;;;;;;;7.80;5.50;;;19.90;99.90;;;;;;5082433;28;20441;-75
2021/08/31 12:36:33;;;;;;;6.70;5.20;;;19.70;99.90;;;;;;5082657;28;20049;-76
2021/08/31 12:39:05;;;;;;;8.52;5.68;;;20.80;99.90;;;;;;5079131;28;20082;-75
2021/08/31 12:41:39;;;;;;;7.38;5.38;;;21.80;99.90;;;;;;5084685;28;20020;-76
2021/08/31 12:44:14;;;;;;;6.55;5.53;;;22.20;99.90;;;;;;5085937;28;20452;-77
2021/08/31 12:46:40;;;;;;;7.18;5.57;;;22.90;99.90;;;;;;5083721;28;20076;-76